Terminal Aerodrome Forecast
Issued by NWS

Home | Current Version | Previous Version | Text Only | Print | Product List | Glossary On
Versions: 1 2 3 4 5 6 7 8 9 10 11 12 13 14
000
FTUS45 KRIW 221121
TAFWRL
TAF
KWRL 221121Z 2212/2312 31007KT P6SM SCT006 OVC012
      TEMPO 2212/2216 -SHRA BKN007
     FM221800 34008KT P6SM SCT030 BKN050
     FM230000 35011G18KT P6SM VCSH SCT025 BKN040
     FM230400 34009KT P6SM -RA SCT020 BKN030=

USA.gov is the U.S. government's official web portal to all federal, state and local government web resources and services.